sensor_id;sensor_type;location;lat;lon;timestamp;P1;durP1;ratioP1;P2;durP2;ratioP2
40635;SDS011;26642;55.766;37.828;2023-05-10T00:01:13;13.25;;;7.65;;
40635;SDS011;26642;55.766;37.828;2023-05-10T00:03:39;12.70;;;8.00;;
40635;SDS011;26642;55.766;37.828;2023-05-10T00:06:05;13.85;;;7.40;;
40635;SDS011;26642;55.766;37.828;2023-05-10T00:08:31;10.00;;;7.25;;
40635;SDS011;26642;55.766;37.828;2023-05-10T00:10:57;13.10;;;7.50;;
40635;SDS011;26642;55.766;37.828;2023-05-10T00:13:23;12.10;;;7.35;;
40635;SDS011;26642;55.766;37.828;2023-05-10T00:15:49;12.95;;;7.13;;
40635;SDS011;26642;55.766;37.828;2023-05-10T00:18:15;14.30;;;7.38;;
40635;SDS011;26642;55.766;37.828;2023-05-10T00:20:41;13.65;;;7.78;;
40635;SDS011;26642;55.766;37.828;2023-05-10T00:23:07;16.42;;;7.32;;
40635;SDS011;26642;55.766;37.828;2023-05-10T00:25:33;11.48;;;7.32;;
40635;SDS011;26642;55.766;37.828;2023-05-10T00:27:59;19.75;;;8.13;;
40635;SDS011;26642;55.766;37.828;2023-05-10T00:30:27;10.80;;;6.95;;
40635;SDS011;26642;55.766;37.828;2023-05-10T00:32:53;14.32;;;7.80;;
40635;SDS011;26642;55.766;37.828;2023-05-10T00:35:19;13.48;;;7.80;;
40635;SDS011;26642;55.766;37.828;2023-05-10T00:37:47;11.27;;;7.10;;
40635;SDS011;26642;55.766;37.828;2023-05-10T00:40:14;12.18;;;7.43;;
40635;SDS011;26642;55.766;37.828;2023-05-10T00:42:43;13.85;;;7.43;;
40635;SDS011;26642;55.766;37.828;2023-05-10T00:45:09;11.63;;;7.22;;
40635;SDS011;26642;55.766;37.828;2023-05-10T00:47:35;12.52;;;7.63;;
40635;SDS011;26642;55.766;37.828;2023-05-10T00:50:01;13.70;;;7.53;;
40635;SDS011;26642;55.766;37.828;2023-05-10T00:52:28;11.32;;;6.82;;
40635;SDS011;26642;55.766;37.828;2023-05-10T00:54:55;11.23;;;7.28;;
40635;SDS011;26642;55.766;37.828;2023-05-10T00:57:21;11.93;;;7.45;;
40635;SDS011;26642;55.766;37.828;2023-05-10T00:59:48;12.90;;;6.63;;
40635;SDS011;26642;55.766;37.828;2023-05-10T01:02:14;12.80;;;7.38;;
40635;SDS011;26642;55.766;37.828;2023-05-10T01:04:40;9.98;;;7.15;;
40635;SDS011;26642;55.766;37.828;2023-05-10T01:07:06;12.38;;;7.10;;
40635;SDS011;26642;55.766;37.828;2023-05-10T01:09:32;13.07;;;7.75;;
40635;SDS011;26642;55.766;37.828;2023-05-10T01:11:59;10.00;;;7.10;;
40635;SDS011;26642;55.766;37.828;2023-05-10T01:14:28;13.65;;;6.85;;
40635;SDS011;26642;55.766;37.828;2023-05-10T01:16:54;11.68;;;7.20;;
40635;SDS011;26642;55.766;37.828;2023-05-10T01:19:25;13.18;;;7.75;;
40635;SDS011;26642;55.766;37.828;2023-05-10T01:32:30;12.23;;;6.55;;
40635;SDS011;26642;55.766;37.828;2023-05-10T01:37:37;10.00;;;6.43;;
40635;SDS011;26642;55.766;37.828;2023-05-10T01:43:26;13.57;;;6.63;;
40635;SDS011;26642;55.766;37.828;2023-05-10T01:46:07;10.32;;;6.28;;
40635;SDS011;26642;55.766;37.828;2023-05-10T01:48:44;10.60;;;6.53;;
40635;SDS011;26642;55.766;37.828;2023-05-10T01:51:19;13.18;;;6.20;;
40635;SDS011;26642;55.766;37.828;2023-05-10T01:53:48;9.30;;;5.93;;
40635;SDS011;26642;55.766;37.828;2023-05-10T01:56:16;11.85;;;6.10;;
40635;SDS011;26642;55.766;37.828;2023-05-10T01:58:48;10.95;;;6.63;;
40635;SDS011;26642;55.766;37.828;2023-05-10T02:01:16;15.98;;;5.85;;
40635;SDS011;26642;55.766;37.828;2023-05-10T02:03:46;10.18;;;5.50;;
40635;SDS011;26642;55.766;37.828;2023-05-10T02:06:13;13.68;;;6.65;;
40635;SDS011;26642;55.766;37.828;2023-05-10T02:08:41;9.57;;;6.15;;
40635;SDS011;26642;55.766;37.828;2023-05-10T02:11:11;10.80;;;5.53;;
40635;SDS011;26642;55.766;37.828;2023-05-10T02:13:39;8.73;;;5.20;;
40635;SDS011;26642;55.766;37.828;2023-05-10T02:16:06;7.45;;;5.38;;
40635;SDS011;26642;55.766;37.828;2023-05-10T02:18:33;10.77;;;6.15;;
40635;SDS011;26642;55.766;37.828;2023-05-10T02:21:02;9.30;;;5.18;;
40635;SDS011;26642;55.766;37.828;2023-05-10T02:23:28;10.77;;;5.95;;
40635;SDS011;26642;55.766;37.828;2023-05-10T02:25:56;12.40;;;5.72;;
40635;SDS011;26642;55.766;37.828;2023-05-10T02:28:23;8.85;;;4.72;;
40635;SDS011;26642;55.766;37.828;2023-05-10T02:30:51;7.82;;;4.93;;
40635;SDS011;26642;55.766;37.828;2023-05-10T02:33:18;8.45;;;5.13;;
40635;SDS011;26642;55.766;37.828;2023-05-10T02:35:46;5.82;;;4.32;;
40635;SDS011;26642;55.766;37.828;2023-05-10T02:38:13;8.43;;;4.72;;
40635;SDS011;26642;55.766;37.828;2023-05-10T02:40:40;8.98;;;4.82;;
40635;SDS011;26642;55.766;37.828;2023-05-10T02:43:12;11.52;;;5.30;;
40635;SDS011;26642;55.766;37.828;2023-05-10T02:45:39;7.18;;;4.88;;
40635;SDS011;26642;55.766;37.828;2023-05-10T02:48:08;6.45;;;4.60;;
40635;SDS011;26642;55.766;37.828;2023-05-10T02:50:34;10.80;;;4.45;;
40635;SDS011;26642;55.766;37.828;2023-05-10T02:53:03;8.32;;;4.30;;
40635;SDS011;26642;55.766;37.828;2023-05-10T02:55:37;10.15;;;4.32;;
40635;SDS011;26642;55.766;37.828;2023-05-10T02:58:06;9.85;;;4.93;;
40635;SDS011;26642;55.766;37.828;2023-05-10T03:00:32;8.90;;;4.38;;
40635;SDS011;26642;55.766;37.828;2023-05-10T03:02:58;9.10;;;5.13;;
40635;SDS011;26642;55.766;37.828;2023-05-10T03:05:27;6.53;;;4.38;;
40635;SDS011;26642;55.766;37.828;2023-05-10T03:07:53;6.22;;;3.97;;
40635;SDS011;26642;55.766;37.828;2023-05-10T03:10:20;8.85;;;4.20;;
40635;SDS011;26642;55.766;37.828;2023-05-10T03:13:13;7.53;;;4.10;;
40635;SDS011;26642;55.766;37.828;2023-05-10T03:21:20;10.10;;;4.63;;
40635;SDS011;26642;55.766;37.828;2023-05-10T03:23:52;9.60;;;4.57;;
40635;SDS011;26642;55.766;37.828;2023-05-10T03:26:30;6.35;;;4.07;;
40635;SDS011;26642;55.766;37.828;2023-05-10T03:29:12;7.38;;;3.92;;
40635;SDS011;26642;55.766;37.828;2023-05-10T03:31:39;10.98;;;4.00;;
40635;SDS011;26642;55.766;37.828;2023-05-10T03:34:06;7.22;;;3.70;;
40635;SDS011;26642;55.766;37.828;2023-05-10T03:36:32;8.05;;;3.75;;
40635;SDS011;26642;55.766;37.828;2023-05-10T03:38:58;7.40;;;3.42;;
40635;SDS011;26642;55.766;37.828;2023-05-10T03:41:25;8.77;;;3.58;;
40635;SDS011;26642;55.766;37.828;2023-05-10T03:43:52;8.27;;;3.97;;
40635;SDS011;26642;55.766;37.828;2023-05-10T03:46:18;8.55;;;3.67;;
40635;SDS011;26642;55.766;37.828;2023-05-10T03:48:45;8.45;;;4.13;;
40635;SDS011;26642;55.766;37.828;2023-05-10T03:51:11;10.23;;;4.35;;
40635;SDS011;26642;55.766;37.828;2023-05-10T03:53:38;8.95;;;4.13;;
40635;SDS011;26642;55.766;37.828;2023-05-10T03:56:04;6.45;;;3.70;;
40635;SDS011;26642;55.766;37.828;2023-05-10T03:58:30;8.10;;;3.97;;
40635;SDS011;26642;55.766;37.828;2023-05-10T04:00:57;10.07;;;4.20;;
40635;SDS011;26642;55.766;37.828;2023-05-10T04:03:23;7.55;;;3.85;;
40635;SDS011;26642;55.766;37.828;2023-05-10T04:05:58;10.13;;;3.75;;
40635;SDS011;26642;55.766;37.828;2023-05-10T04:08:27;9.30;;;4.18;;
40635;SDS011;26642;55.766;37.828;2023-05-10T04:10:53;11.35;;;4.10;;
40635;SDS011;26642;55.766;37.828;2023-05-10T04:13:19;9.73;;;5.00;;
40635;SDS011;26642;55.766;37.828;2023-05-10T04:15:46;12.32;;;4.35;;
40635;SDS011;26642;55.766;37.828;2023-05-10T04:18:12;10.57;;;4.50;;
40635;SDS011;26642;55.766;37.828;2023-05-10T04:20:38;11.70;;;4.28;;
40635;SDS011;26642;55.766;37.828;2023-05-10T04:23:03;7.57;;;3.95;;
40635;SDS011;26642;55.766;37.828;2023-05-10T04:25:29;9.38;;;3.88;;
40635;SDS011;26642;55.766;37.828;2023-05-10T04:27:55;9.65;;;4.63;;
40635;SDS011;26642;55.766;37.828;2023-05-10T04:30:21;9.15;;;3.67;;
40635;SDS011;26642;55.766;37.828;2023-05-10T04:32:47;6.78;;;3.47;;
40635;SDS011;26642;55.766;37.828;2023-05-10T04:35:13;11.48;;;3.70;;
40635;SDS011;26642;55.766;37.828;2023-05-10T04:37:40;6.03;;;3.40;;
40635;SDS011;26642;55.766;37.828;2023-05-10T04:40:06;7.85;;;3.30;;
40635;SDS011;26642;55.766;37.828;2023-05-10T04:42:32;5.43;;;3.20;;
40635;SDS011;26642;55.766;37.828;2023-05-10T04:44:58;5.90;;;3.60;;
40635;SDS011;26642;55.766;37.828;2023-05-10T04:47:24;5.30;;;3.00;;
40635;SDS011;26642;55.766;37.828;2023-05-10T04:49:50;5.90;;;2.92;;
40635;SDS011;26642;55.766;37.828;2023-05-10T04:52:16;5.82;;;2.85;;
40635;SDS011;26642;55.766;37.828;2023-05-10T04:54:43;5.50;;;3.17;;
40635;SDS011;26642;55.766;37.828;2023-05-10T04:57:08;3.97;;;3.40;;
40635;SDS011;26642;55.766;37.828;2023-05-10T04:59:35;5.15;;;3.00;;
40635;SDS011;26642;55.766;37.828;2023-05-10T05:02:02;4.53;;;3.25;;
40635;SDS011;26642;55.766;37.828;2023-05-10T05:04:29;6.82;;;3.17;;
40635;SDS011;26642;55.766;37.828;2023-05-10T05:06:56;4.32;;;2.67;;
40635;SDS011;26642;55.766;37.828;2023-05-10T05:09:22;6.22;;;3.13;;
40635;SDS011;26642;55.766;37.828;2023-05-10T05:11:48;5.82;;;2.25;;
40635;SDS011;26642;55.766;37.828;2023-05-10T05:14:14;6.13;;;2.72;;
40635;SDS011;26642;55.766;37.828;2023-05-10T05:16:40;6.63;;;3.05;;
40635;SDS011;26642;55.766;37.828;2023-05-10T05:19:06;6.15;;;3.45;;
40635;SDS011;26642;55.766;37.828;2023-05-10T05:21:32;30.35;;;4.65;;
40635;SDS011;26642;55.766;37.828;2023-05-10T05:23:58;12.18;;;3.22;;
40635;SDS011;26642;55.766;37.828;2023-05-10T05:26:24;9.82;;;3.33;;
40635;SDS011;26642;55.766;37.828;2023-05-10T05:28:49;4.57;;;2.90;;
40635;SDS011;26642;55.766;37.828;2023-05-10T05:31:18;11.00;;;3.30;;
40635;SDS011;26642;55.766;37.828;2023-05-10T05:33:44;5.38;;;2.67;;
40635;SDS011;26642;55.766;37.828;2023-05-10T05:36:10;6.07;;;3.03;;
40635;SDS011;26642;55.766;37.828;2023-05-10T05:38:37;6.50;;;2.67;;
40635;SDS011;26642;55.766;37.828;2023-05-10T05:41:02;5.18;;;2.55;;
40635;SDS011;26642;55.766;37.828;2023-05-10T05:43:28;7.05;;;2.70;;
40635;SDS011;26642;55.766;37.828;2023-05-10T05:45:55;4.50;;;2.72;;
40635;SDS011;26642;55.766;37.828;2023-05-10T05:48:23;3.20;;;2.35;;
40635;SDS011;26642;55.766;37.828;2023-05-10T05:50:49;7.22;;;2.38;;
40635;SDS011;26642;55.766;37.828;2023-05-10T05:53:15;3.42;;;2.10;;
40635;SDS011;26642;55.766;37.828;2023-05-10T05:55:50;4.97;;;2.28;;
40635;SDS011;26642;55.766;37.828;2023-05-10T05:58:17;4.18;;;2.67;;
40635;SDS011;26642;55.766;37.828;2023-05-10T06:00:43;13.70;;;3.50;;
40635;SDS011;26642;55.766;37.828;2023-05-10T06:03:10;8.85;;;3.28;;
40635;SDS011;26642;55.766;37.828;2023-05-10T06:05:36;9.23;;;2.53;;
40635;SDS011;26642;55.766;37.828;2023-05-10T06:08:02;7.88;;;2.50;;
40635;SDS011;26642;55.766;37.828;2023-05-10T06:10:28;10.52;;;2.83;;
40635;SDS011;26642;55.766;37.828;2023-05-10T06:12:53;7.97;;;2.35;;
40635;SDS011;26642;55.766;37.828;2023-05-10T06:15:19;3.65;;;2.20;;
40635;SDS011;26642;55.766;37.828;2023-05-10T06:17:45;6.78;;;2.03;;
40635;SDS011;26642;55.766;37.828;2023-05-10T06:20:14;5.57;;;2.15;;
40635;SDS011;26642;55.766;37.828;2023-05-10T06:22:41;4.57;;;2.17;;
40635;SDS011;26642;55.766;37.828;2023-05-10T06:25:07;3.33;;;2.20;;
40635;SDS011;26642;55.766;37.828;2023-05-10T06:27:33;7.70;;;2.03;;
40635;SDS011;26642;55.766;37.828;2023-05-10T06:29:59;8.43;;;2.15;;
40635;SDS011;26642;55.766;37.828;2023-05-10T06:32:25;11.02;;;3.05;;
40635;SDS011;26642;55.766;37.828;2023-05-10T06:34:51;6.70;;;2.50;;
40635;SDS011;26642;55.766;37.828;2023-05-10T06:37:17;5.15;;;2.28;;
40635;SDS011;26642;55.766;37.828;2023-05-10T06:39:43;5.07;;;2.33;;
40635;SDS011;26642;55.766;37.828;2023-05-10T06:42:09;6.97;;;1.95;;
40635;SDS011;26642;55.766;37.828;2023-05-10T06:44:35;5.57;;;1.85;;
40635;SDS011;26642;55.766;37.828;2023-05-10T06:47:01;4.85;;;1.48;;
40635;SDS011;26642;55.766;37.828;2023-05-10T06:49:27;4.53;;;1.90;;
40635;SDS011;26642;55.766;37.828;2023-05-10T06:51:53;5.57;;;1.70;;
40635;SDS011;26642;55.766;37.828;2023-05-10T06:54:20;7.63;;;2.03;;
40635;SDS011;26642;55.766;37.828;2023-05-10T06:56:46;10.63;;;2.15;;
40635;SDS011;26642;55.766;37.828;2023-05-10T06:59:12;6.88;;;1.75;;
40635;SDS011;26642;55.766;37.828;2023-05-10T07:01:39;10.20;;;1.75;;
40635;SDS011;26642;55.766;37.828;2023-05-10T07:04:05;8.10;;;2.05;;
40635;SDS011;26642;55.766;37.828;2023-05-10T07:06:32;3.80;;;2.17;;
40635;SDS011;26642;55.766;37.828;2023-05-10T07:08:58;9.02;;;1.75;;
40635;SDS011;26642;55.766;37.828;2023-05-10T07:11:25;5.97;;;1.75;;
40635;SDS011;26642;55.766;37.828;2023-05-10T07:13:52;6.35;;;1.88;;
40635;SDS011;26642;55.766;37.828;2023-05-10T07:16:18;2.70;;;1.55;;
40635;SDS011;26642;55.766;37.828;2023-05-10T07:18:44;5.22;;;1.58;;
40635;SDS011;26642;55.766;37.828;2023-05-10T07:21:10;2.90;;;1.63;;
40635;SDS011;26642;55.766;37.828;2023-05-10T07:23:36;7.28;;;1.70;;
40635;SDS011;26642;55.766;37.828;2023-05-10T07:26:02;6.05;;;1.83;;
40635;SDS011;26642;55.766;37.828;2023-05-10T07:28:28;15.13;;;3.40;;
40635;SDS011;26642;55.766;37.828;2023-05-10T07:30:54;7.13;;;2.75;;
40635;SDS011;26642;55.766;37.828;2023-05-10T07:33:20;9.45;;;2.42;;
40635;SDS011;26642;55.766;37.828;2023-05-10T07:35:46;55.65;;;6.43;;
40635;SDS011;26642;55.766;37.828;2023-05-10T07:38:12;41.63;;;5.13;;
40635;SDS011;26642;55.766;37.828;2023-05-10T07:40:38;25.77;;;3.50;;
40635;SDS011;26642;55.766;37.828;2023-05-10T07:43:05;18.42;;;3.80;;
40635;SDS011;26642;55.766;37.828;2023-05-10T07:45:31;16.05;;;2.85;;
40635;SDS011;26642;55.766;37.828;2023-05-10T07:47:57;12.68;;;2.45;;
40635;SDS011;26642;55.766;37.828;2023-05-10T07:50:23;7.65;;;1.83;;
40635;SDS011;26642;55.766;37.828;2023-05-10T07:52:49;5.68;;;1.95;;
40635;SDS011;26642;55.766;37.828;2023-05-10T07:55:15;6.40;;;1.90;;
40635;SDS011;26642;55.766;37.828;2023-05-10T07:57:43;8.43;;;1.77;;
40635;SDS011;26642;55.766;37.828;2023-05-10T08:00:11;4.93;;;2.13;;
40635;SDS011;26642;55.766;37.828;2023-05-10T08:02:38;4.43;;;2.10;;
40635;SDS011;26642;55.766;37.828;2023-05-10T08:05:04;4.10;;;2.30;;
40635;SDS011;26642;55.766;37.828;2023-05-10T08:07:31;4.53;;;1.60;;
40635;SDS011;26642;55.766;37.828;2023-05-10T08:09:57;3.50;;;1.40;;
40635;SDS011;26642;55.766;37.828;2023-05-10T08:12:23;2.83;;;1.50;;
40635;SDS011;26642;55.766;37.828;2023-05-10T08:14:49;3.88;;;1.50;;
40635;SDS011;26642;55.766;37.828;2023-05-10T08:17:15;3.28;;;1.80;;
40635;SDS011;26642;55.766;37.828;2023-05-10T08:19:41;2.28;;;1.77;;
40635;SDS011;26642;55.766;37.828;2023-05-10T08:22:07;2.67;;;1.38;;
40635;SDS011;26642;55.766;37.828;2023-05-10T08:24:33;6.43;;;1.85;;
40635;SDS011;26642;55.766;37.828;2023-05-10T08:27:04;5.25;;;1.70;;
40635;SDS011;26642;55.766;37.828;2023-05-10T08:29:30;4.15;;;1.33;;
40635;SDS011;26642;55.766;37.828;2023-05-10T08:31:56;2.28;;;1.30;;
40635;SDS011;26642;55.766;37.828;2023-05-10T08:34:22;2.47;;;1.40;;
40635;SDS011;26642;55.766;37.828;2023-05-10T08:36:48;3.47;;;1.50;;
40635;SDS011;26642;55.766;37.828;2023-05-10T08:39:14;6.22;;;1.75;;
40635;SDS011;26642;55.766;37.828;2023-05-10T08:41:40;7.80;;;1.80;;
40635;SDS011;26642;55.766;37.828;2023-05-10T08:44:10;6.53;;;2.30;;
40635;SDS011;26642;55.766;37.828;2023-05-10T08:46:37;4.35;;;1.67;;
40635;SDS011;26642;55.766;37.828;2023-05-10T08:49:09;2.58;;;1.40;;
40635;SDS011;26642;55.766;37.828;2023-05-10T08:51:42;3.80;;;1.83;;
40635;SDS011;26642;55.766;37.828;2023-05-10T08:54:12;4.38;;;1.40;;
40635;SDS011;26642;55.766;37.828;2023-05-10T08:56:38;2.25;;;1.25;;
40635;SDS011;26642;55.766;37.828;2023-05-10T08:59:04;2.92;;;1.20;;
40635;SDS011;26642;55.766;37.828;2023-05-10T09:01:31;2.63;;;1.30;;
40635;SDS011;26642;55.766;37.828;2023-05-10T09:03:58;1.65;;;1.10;;
40635;SDS011;26642;55.766;37.828;2023-05-10T09:06:24;2.17;;;1.17;;
40635;SDS011;26642;55.766;37.828;2023-05-10T09:08:51;2.95;;;1.48;;
40635;SDS011;26642;55.766;37.828;2023-05-10T09:11:17;7.95;;;3.80;;
40635;SDS011;26642;55.766;37.828;2023-05-10T09:13:45;4.45;;;2.97;;
40635;SDS011;26642;55.766;37.828;2023-05-10T09:16:14;2.80;;;2.50;;
40635;SDS011;26642;55.766;37.828;2023-05-10T09:18:40;3.70;;;2.05;;
40635;SDS011;26642;55.766;37.828;2023-05-10T09:21:06;3.13;;;2.25;;
40635;SDS011;26642;55.766;37.828;2023-05-10T09:23:32;3.72;;;1.70;;
40635;SDS011;26642;55.766;37.828;2023-05-10T09:26:01;4.13;;;2.08;;
40635;SDS011;26642;55.766;37.828;2023-05-10T09:31:17;2.22;;;2.03;;
40635;SDS011;26642;55.766;37.828;2023-05-10T09:33:44;3.13;;;1.65;;
40635;SDS011;26642;55.766;37.828;2023-05-10T09:36:13;3.88;;;1.63;;
40635;SDS011;26642;55.766;37.828;2023-05-10T09:38:50;1.70;;;1.58;;
40635;SDS011;26642;55.766;37.828;2023-05-10T09:41:18;4.38;;;1.70;;
40635;SDS011;26642;55.766;37.828;2023-05-10T09:43:48;9.25;;;1.90;;
40635;SDS011;26642;55.766;37.828;2023-05-10T09:46:15;4.35;;;1.60;;
40635;SDS011;26642;55.766;37.828;2023-05-10T09:48:42;4.20;;;1.35;;
40635;SDS011;26642;55.766;37.828;2023-05-10T09:51:09;6.40;;;2.00;;
40635;SDS011;26642;55.766;37.828;2023-05-10T09:53:35;3.67;;;1.70;;
40635;SDS011;26642;55.766;37.828;2023-05-10T09:56:01;7.25;;;1.65;;
40635;SDS011;26642;55.766;37.828;2023-05-10T09:58:27;4.15;;;1.40;;
40635;SDS011;26642;55.766;37.828;2023-05-10T10:00:53;3.78;;;1.48;;
40635;SDS011;26642;55.766;37.828;2023-05-10T10:03:20;3.58;;;1.30;;
40635;SDS011;26642;55.766;37.828;2023-05-10T10:05:48;1.55;;;1.15;;
40635;SDS011;26642;55.766;37.828;2023-05-10T10:08:14;4.03;;;1.33;;
40635;SDS011;26642;55.766;37.828;2023-05-10T10:10:41;3.42;;;1.40;;
40635;SDS011;26642;55.766;37.828;2023-05-10T10:13:10;4.95;;;2.28;;
40635;SDS011;26642;55.766;37.828;2023-05-10T10:15:36;2.35;;;1.70;;
40635;SDS011;26642;55.766;37.828;2023-05-10T10:18:03;5.53;;;2.10;;
40635;SDS011;26642;55.766;37.828;2023-05-10T10:20:30;4.00;;;2.10;;
40635;SDS011;26642;55.766;37.828;2023-05-10T10:22:56;4.05;;;1.83;;
40635;SDS011;26642;55.766;37.828;2023-05-10T10:25:22;3.60;;;1.50;;
40635;SDS011;26642;55.766;37.828;2023-05-10T10:27:56;3.67;;;1.50;;
40635;SDS011;26642;55.766;37.828;2023-05-10T10:30:48;3.17;;;1.48;;
40635;SDS011;26642;55.766;37.828;2023-05-10T10:36:19;3.75;;;1.65;;
40635;SDS011;26642;55.766;37.828;2023-05-10T10:41:57;3.53;;;1.50;;
40635;SDS011;26642;55.766;37.828;2023-05-10T10:49:31;6.72;;;1.42;;
40635;SDS011;26642;55.766;37.828;2023-05-10T11:02:51;2.90;;;1.30;;
40635;SDS011;26642;55.766;37.828;2023-05-10T11:05:43;2.63;;;1.20;;
40635;SDS011;26642;55.766;37.828;2023-05-10T11:08:11;3.15;;;1.60;;
40635;SDS011;26642;55.766;37.828;2023-05-10T11:10:38;3.90;;;1.40;;
40635;SDS011;26642;55.766;37.828;2023-05-10T11:13:08;3.33;;;1.60;;
40635;SDS011;26642;55.766;37.828;2023-05-10T11:15:39;2.70;;;1.25;;
40635;SDS011;26642;55.766;37.828;2023-05-10T11:18:23;2.85;;;1.65;;
40635;SDS011;26642;55.766;37.828;2023-05-10T11:20:56;4.80;;;1.63;;
40635;SDS011;26642;55.766;37.828;2023-05-10T11:26:15;3.35;;;1.70;;
40635;SDS011;26642;55.766;37.828;2023-05-10T11:28:42;2.55;;;1.60;;
40635;SDS011;26642;55.766;37.828;2023-05-10T11:31:18;3.30;;;1.50;;
40635;SDS011;26642;55.766;37.828;2023-05-10T11:33:45;2.80;;;1.58;;
40635;SDS011;26642;55.766;37.828;2023-05-10T11:36:19;2.40;;;1.50;;
40635;SDS011;26642;55.766;37.828;2023-05-10T11:38:47;3.33;;;1.35;;
40635;SDS011;26642;55.766;37.828;2023-05-10T11:41:14;1.50;;;1.10;;
40635;SDS011;26642;55.766;37.828;2023-05-10T11:43:42;2.20;;;1.50;;
40635;SDS011;26642;55.766;37.828;2023-05-10T11:46:09;2.90;;;1.55;;
40635;SDS011;26642;55.766;37.828;2023-05-10T11:48:38;1.55;;;1.35;;
40635;SDS011;26642;55.766;37.828;2023-05-10T11:51:06;1.80;;;1.20;;
40635;SDS011;26642;55.766;37.828;2023-05-10T11:53:36;5.32;;;1.80;;
40635;SDS011;26642;55.766;37.828;2023-05-10T11:56:09;1.42;;;1.33;;
40635;SDS011;26642;55.766;37.828;2023-05-10T11:58:36;2.58;;;1.38;;
40635;SDS011;26642;55.766;37.828;2023-05-10T12:01:04;5.00;;;1.40;;
40635;SDS011;26642;55.766;37.828;2023-05-10T12:03:31;7.40;;;1.58;;
40635;SDS011;26642;55.766;37.828;2023-05-10T12:05:58;3.15;;;1.38;;
40635;SDS011;26642;55.766;37.828;2023-05-10T12:08:26;2.00;;;1.40;;
40635;SDS011;26642;55.766;37.828;2023-05-10T12:10:53;2.35;;;1.30;;
40635;SDS011;26642;55.766;37.828;2023-05-10T12:13:29;2.17;;;1.10;;
40635;SDS011;26642;55.766;37.828;2023-05-10T12:15:58;3.63;;;1.65;;
40635;SDS011;26642;55.766;37.828;2023-05-10T12:18:24;10.48;;;1.95;;
40635;SDS011;26642;55.766;37.828;2023-05-10T12:20:53;3.40;;;1.58;;
40635;SDS011;26642;55.766;37.828;2023-05-10T12:23:20;5.82;;;1.50;;
40635;SDS011;26642;55.766;37.828;2023-05-10T12:25:46;2.83;;;1.30;;
40635;SDS011;26642;55.766;37.828;2023-05-10T12:28:12;1.58;;;1.30;;
40635;SDS011;26642;55.766;37.828;2023-05-10T12:30:38;2.83;;;1.30;;
40635;SDS011;26642;55.766;37.828;2023-05-10T12:33:08;4.57;;;1.50;;
40635;SDS011;26642;55.766;37.828;2023-05-10T12:35:51;1.60;;;1.33;;
40635;SDS011;26642;55.766;37.828;2023-05-10T12:38:26;5.28;;;1.73;;
40635;SDS011;26642;55.766;37.828;2023-05-10T12:41:05;6.20;;;1.90;;
40635;SDS011;26642;55.766;37.828;2023-05-10T12:43:34;10.90;;;1.70;;
40635;SDS011;26642;55.766;37.828;2023-05-10T12:46:04;3.38;;;1.38;;
40635;SDS011;26642;55.766;37.828;2023-05-10T12:48:34;6.22;;;1.67;;
40635;SDS011;26642;55.766;37.828;2023-05-10T12:51:01;5.30;;;1.65;;
40635;SDS011;26642;55.766;37.828;2023-05-10T12:53:28;3.65;;;1.33;;
40635;SDS011;26642;55.766;37.828;2023-05-10T12:55:54;5.85;;;1.75;;
40635;SDS011;26642;55.766;37.828;2023-05-10T12:58:20;5.13;;;1.40;;
40635;SDS011;26642;55.766;37.828;2023-05-10T13:00:46;4.95;;;1.50;;
40635;SDS011;26642;55.766;37.828;2023-05-10T13:03:12;3.28;;;1.60;;
40635;SDS011;26642;55.766;37.828;2023-05-10T13:05:38;4.85;;;1.80;;
40635;SDS011;26642;55.766;37.828;2023-05-10T13:08:04;1.88;;;1.50;;
40635;SDS011;26642;55.766;37.828;2023-05-10T13:10:30;6.40;;;1.70;;
40635;SDS011;26642;55.766;37.828;2023-05-10T13:12:57;1.48;;;1.15;;
40635;SDS011;26642;55.766;37.828;2023-05-10T13:15:24;3.72;;;1.50;;
40635;SDS011;26642;55.766;37.828;2023-05-10T13:17:51;2.35;;;1.48;;
40635;SDS011;26642;55.766;37.828;2023-05-10T13:20:19;3.97;;;2.25;;
40635;SDS011;26642;55.766;37.828;2023-05-10T13:22:46;1.75;;;1.50;;
40635;SDS011;26642;55.766;37.828;2023-05-10T13:25:12;3.13;;;1.23;;
40635;SDS011;26642;55.766;37.828;2023-05-10T13:27:41;1.60;;;1.40;;
40635;SDS011;26642;55.766;37.828;2023-05-10T13:30:08;3.00;;;1.20;;
40635;SDS011;26642;55.766;37.828;2023-05-10T13:32:34;4.07;;;1.70;;
40635;SDS011;26642;55.766;37.828;2023-05-10T13:35:01;1.52;;;1.40;;
40635;SDS011;26642;55.766;37.828;2023-05-10T13:37:28;2.83;;;1.60;;
40635;SDS011;26642;55.766;37.828;2023-05-10T13:39:55;2.45;;;1.30;;
40635;SDS011;26642;55.766;37.828;2023-05-10T13:42:21;2.15;;;1.30;;
40635;SDS011;26642;55.766;37.828;2023-05-10T13:44:49;1.73;;;1.50;;
40635;SDS011;26642;55.766;37.828;2023-05-10T13:47:15;2.72;;;1.45;;
40635;SDS011;26642;55.766;37.828;2023-05-10T13:49:41;2.92;;;1.50;;
40635;SDS011;26642;55.766;37.828;2023-05-10T13:52:07;3.20;;;1.40;;
40635;SDS011;26642;55.766;37.828;2023-05-10T13:54:38;1.60;;;1.35;;
40635;SDS011;26642;55.766;37.828;2023-05-10T13:57:04;3.08;;;1.50;;
40635;SDS011;26642;55.766;37.828;2023-05-10T13:59:31;1.55;;;1.30;;
40635;SDS011;26642;55.766;37.828;2023-05-10T14:01:58;3.55;;;1.20;;
40635;SDS011;26642;55.766;37.828;2023-05-10T14:04:25;2.35;;;1.15;;
40635;SDS011;26642;55.766;37.828;2023-05-10T14:06:51;2.20;;;1.48;;
40635;SDS011;26642;55.766;37.828;2023-05-10T14:09:18;2.47;;;1.60;;
40635;SDS011;26642;55.766;37.828;2023-05-10T14:11:44;2.10;;;1.40;;
40635;SDS011;26642;55.766;37.828;2023-05-10T14:14:10;4.07;;;1.63;;
40635;SDS011;26642;55.766;37.828;2023-05-10T14:16:37;3.03;;;1.42;;
40635;SDS011;26642;55.766;37.828;2023-05-10T14:19:06;1.92;;;1.48;;
40635;SDS011;26642;55.766;37.828;2023-05-10T14:21:32;3.63;;;1.50;;
40635;SDS011;26642;55.766;37.828;2023-05-10T14:23:59;3.45;;;1.30;;
40635;SDS011;26642;55.766;37.828;2023-05-10T14:26:25;3.10;;;1.42;;
40635;SDS011;26642;55.766;37.828;2023-05-10T14:28:51;2.40;;;1.30;;
40635;SDS011;26642;55.766;37.828;2023-05-10T14:31:17;3.15;;;1.30;;
40635;SDS011;26642;55.766;37.828;2023-05-10T14:33:46;1.67;;;1.42;;
40635;SDS011;26642;55.766;37.828;2023-05-10T14:36:12;2.65;;;1.55;;
40635;SDS011;26642;55.766;37.828;2023-05-10T14:38:38;2.10;;;1.45;;
40635;SDS011;26642;55.766;37.828;2023-05-10T14:41:05;3.10;;;1.73;;
40635;SDS011;26642;55.766;37.828;2023-05-10T14:43:31;2.08;;;1.60;;
40635;SDS011;26642;55.766;37.828;2023-05-10T14:45:57;4.22;;;1.98;;
40635;SDS011;26642;55.766;37.828;2023-05-10T14:48:23;3.08;;;1.60;;
40635;SDS011;26642;55.766;37.828;2023-05-10T14:50:49;4.15;;;1.52;;
40635;SDS011;26642;55.766;37.828;2023-05-10T14:53:15;2.10;;;1.52;;
40635;SDS011;26642;55.766;37.828;2023-05-10T14:55:41;3.85;;;1.65;;
40635;SDS011;26642;55.766;37.828;2023-05-10T14:58:07;1.92;;;1.70;;
40635;SDS011;26642;55.766;37.828;2023-05-10T15:00:33;1.52;;;1.38;;
40635;SDS011;26642;55.766;37.828;2023-05-10T15:03:00;8.05;;;2.00;;
40635;SDS011;26642;55.766;37.828;2023-05-10T15:05:27;8.52;;;2.58;;
40635;SDS011;26642;55.766;37.828;2023-05-10T15:07:53;12.95;;;2.70;;
40635;SDS011;26642;55.766;37.828;2023-05-10T15:10:19;11.80;;;3.03;;
40635;SDS011;26642;55.766;37.828;2023-05-10T15:12:45;10.07;;;2.40;;
40635;SDS011;26642;55.766;37.828;2023-05-10T15:15:10;8.27;;;2.15;;
40635;SDS011;26642;55.766;37.828;2023-05-10T15:17:36;6.15;;;1.88;;
40635;SDS011;26642;55.766;37.828;2023-05-10T15:20:02;9.30;;;2.10;;
40635;SDS011;26642;55.766;37.828;2023-05-10T15:22:29;4.18;;;1.70;;